sensor_id;sensor_type;location;lat;lon;timestamp;P1;durP1;ratioP1;P2;durP2;ratioP2
71513;SDS011;59335;46.652;21.272;2023-12-14T00:02:30;5.85;;;3.10;;
71513;SDS011;59335;46.652;21.272;2023-12-14T00:05:34;5.68;;;2.75;;
71513;SDS011;59335;46.652;21.272;2023-12-14T00:08:37;5.60;;;2.80;;
71513;SDS011;59335;46.652;21.272;2023-12-14T00:11:40;5.68;;;2.55;;
71513;SDS011;59335;46.652;21.272;2023-12-14T00:14:43;6.38;;;3.10;;
71513;SDS011;59335;46.652;21.272;2023-12-14T00:17:45;6.72;;;3.08;;
71513;SDS011;59335;46.652;21.272;2023-12-14T00:20:48;6.15;;;2.90;;
71513;SDS011;59335;46.652;21.272;2023-12-14T00:23:51;6.03;;;2.90;;
71513;SDS011;59335;46.652;21.272;2023-12-14T00:26:54;6.50;;;3.35;;
71513;SDS011;59335;46.652;21.272;2023-12-14T00:29:57;6.75;;;2.85;;
71513;SDS011;59335;46.652;21.272;2023-12-14T00:32:59;6.70;;;3.20;;
71513;SDS011;59335;46.652;21.272;2023-12-14T00:36:02;5.80;;;3.00;;
71513;SDS011;59335;46.652;21.272;2023-12-14T00:39:05;5.73;;;2.97;;
71513;SDS011;59335;46.652;21.272;2023-12-14T00:42:08;5.50;;;2.72;;
71513;SDS011;59335;46.652;21.272;2023-12-14T00:45:11;6.78;;;2.97;;
71513;SDS011;59335;46.652;21.272;2023-12-14T00:48:14;5.80;;;2.80;;
71513;SDS011;59335;46.652;21.272;2023-12-14T00:51:17;7.15;;;3.10;;
71513;SDS011;59335;46.652;21.272;2023-12-14T00:54:20;6.67;;;3.00;;
71513;SDS011;59335;46.652;21.272;2023-12-14T00:57:22;5.88;;;2.92;;
71513;SDS011;59335;46.652;21.272;2023-12-14T01:00:25;5.85;;;3.13;;
71513;SDS011;59335;46.652;21.272;2023-12-14T01:03:28;6.85;;;2.80;;
71513;SDS011;59335;46.652;21.272;2023-12-14T01:06:31;5.78;;;2.85;;
71513;SDS011;59335;46.652;21.272;2023-12-14T01:09:34;5.73;;;2.87;;
71513;SDS011;59335;46.652;21.272;2023-12-14T01:12:36;5.72;;;2.65;;
71513;SDS011;59335;46.652;21.272;2023-12-14T01:15:39;5.43;;;3.00;;
71513;SDS011;59335;46.652;21.272;2023-12-14T01:18:42;6.45;;;2.92;;
71513;SDS011;59335;46.652;21.272;2023-12-14T01:21:45;6.47;;;2.90;;
71513;SDS011;59335;46.652;21.272;2023-12-14T01:24:48;5.80;;;2.53;;
71513;SDS011;59335;46.652;21.272;2023-12-14T01:27:51;6.40;;;3.08;;
71513;SDS011;59335;46.652;21.272;2023-12-14T01:30:54;5.78;;;2.95;;
71513;SDS011;59335;46.652;21.272;2023-12-14T01:33:57;5.63;;;2.78;;
71513;SDS011;59335;46.652;21.272;2023-12-14T01:37:00;5.90;;;2.70;;
71513;SDS011;59335;46.652;21.272;2023-12-14T01:40:03;6.40;;;2.87;;
71513;SDS011;59335;46.652;21.272;2023-12-14T01:43:08;6.10;;;2.97;;
71513;SDS011;59335;46.652;21.272;2023-12-14T01:46:13;5.57;;;2.75;;
71513;SDS011;59335;46.652;21.272;2023-12-14T01:49:17;5.65;;;2.78;;
71513;SDS011;59335;46.652;21.272;2023-12-14T01:52:20;5.43;;;2.80;;
71513;SDS011;59335;46.652;21.272;2023-12-14T01:55:23;5.30;;;2.70;;
71513;SDS011;59335;46.652;21.272;2023-12-14T01:58:26;6.10;;;2.78;;
71513;SDS011;59335;46.652;21.272;2023-12-14T02:01:39;5.05;;;2.63;;
71513;SDS011;59335;46.652;21.272;2023-12-14T02:04:45;5.68;;;2.72;;
71513;SDS011;59335;46.652;21.272;2023-12-14T02:07:48;5.45;;;3.05;;
71513;SDS011;59335;46.652;21.272;2023-12-14T02:10:52;5.30;;;2.70;;
71513;SDS011;59335;46.652;21.272;2023-12-14T02:13:54;6.15;;;2.60;;
71513;SDS011;59335;46.652;21.272;2023-12-14T02:16:58;5.60;;;2.90;;
71513;SDS011;59335;46.652;21.272;2023-12-14T02:20:01;6.15;;;2.70;;
71513;SDS011;59335;46.652;21.272;2023-12-14T02:23:04;6.75;;;2.92;;
71513;SDS011;59335;46.652;21.272;2023-12-14T02:26:07;5.90;;;3.03;;
71513;SDS011;59335;46.652;21.272;2023-12-14T02:29:10;5.20;;;2.67;;
71513;SDS011;59335;46.652;21.272;2023-12-14T02:32:12;4.90;;;2.60;;
71513;SDS011;59335;46.652;21.272;2023-12-14T02:35:16;5.22;;;2.50;;
71513;SDS011;59335;46.652;21.272;2023-12-14T02:38:20;5.03;;;2.70;;
71513;SDS011;59335;46.652;21.272;2023-12-14T02:41:23;4.83;;;2.60;;
71513;SDS011;59335;46.652;21.272;2023-12-14T02:44:26;5.07;;;2.50;;
71513;SDS011;59335;46.652;21.272;2023-12-14T02:47:29;5.97;;;2.58;;
71513;SDS011;59335;46.652;21.272;2023-12-14T02:50:32;5.53;;;2.60;;
71513;SDS011;59335;46.652;21.272;2023-12-14T02:53:35;5.32;;;2.97;;
71513;SDS011;59335;46.652;21.272;2023-12-14T02:56:38;5.80;;;2.53;;
71513;SDS011;59335;46.652;21.272;2023-12-14T02:59:41;6.22;;;2.60;;
71513;SDS011;59335;46.652;21.272;2023-12-14T03:02:44;5.10;;;2.53;;
71513;SDS011;59335;46.652;21.272;2023-12-14T03:05:47;5.47;;;2.65;;
71513;SDS011;59335;46.652;21.272;2023-12-14T03:08:51;7.40;;;2.97;;
71513;SDS011;59335;46.652;21.272;2023-12-14T03:11:54;4.70;;;2.43;;
71513;SDS011;59335;46.652;21.272;2023-12-14T03:14:57;4.68;;;2.42;;
71513;SDS011;59335;46.652;21.272;2023-12-14T03:18:00;5.22;;;2.78;;
71513;SDS011;59335;46.652;21.272;2023-12-14T03:21:04;6.05;;;2.67;;
71513;SDS011;59335;46.652;21.272;2023-12-14T03:24:06;6.22;;;2.78;;
71513;SDS011;59335;46.652;21.272;2023-12-14T03:27:09;5.57;;;2.60;;
71513;SDS011;59335;46.652;21.272;2023-12-14T03:30:12;6.03;;;2.72;;
71513;SDS011;59335;46.652;21.272;2023-12-14T03:33:16;6.03;;;2.97;;
71513;SDS011;59335;46.652;21.272;2023-12-14T03:36:19;5.13;;;2.83;;
71513;SDS011;59335;46.652;21.272;2023-12-14T03:39:21;7.38;;;3.00;;
71513;SDS011;59335;46.652;21.272;2023-12-14T03:42:24;4.83;;;2.60;;
71513;SDS011;59335;46.652;21.272;2023-12-14T03:45:27;5.38;;;2.78;;
71513;SDS011;59335;46.652;21.272;2023-12-14T03:48:30;5.82;;;2.90;;
71513;SDS011;59335;46.652;21.272;2023-12-14T03:51:33;5.78;;;2.92;;
71513;SDS011;59335;46.652;21.272;2023-12-14T03:54:36;5.72;;;2.92;;
71513;SDS011;59335;46.652;21.272;2023-12-14T03:57:39;5.97;;;2.80;;
71513;SDS011;59335;46.652;21.272;2023-12-14T04:00:43;6.78;;;2.90;;
71513;SDS011;59335;46.652;21.272;2023-12-14T04:03:46;5.50;;;2.75;;
71513;SDS011;59335;46.652;21.272;2023-12-14T04:06:49;5.63;;;2.92;;
71513;SDS011;59335;46.652;21.272;2023-12-14T04:09:53;4.72;;;2.70;;
71513;SDS011;59335;46.652;21.272;2023-12-14T04:12:56;6.17;;;2.67;;
71513;SDS011;59335;46.652;21.272;2023-12-14T04:15:59;5.85;;;2.80;;
71513;SDS011;59335;46.652;21.272;2023-12-14T04:19:02;5.43;;;2.58;;
71513;SDS011;59335;46.652;21.272;2023-12-14T04:22:05;5.97;;;2.90;;
71513;SDS011;59335;46.652;21.272;2023-12-14T04:25:09;5.50;;;2.65;;
71513;SDS011;59335;46.652;21.272;2023-12-14T04:28:11;6.70;;;2.80;;
71513;SDS011;59335;46.652;21.272;2023-12-14T04:31:14;4.80;;;2.78;;
71513;SDS011;59335;46.652;21.272;2023-12-14T04:34:17;5.03;;;2.50;;
71513;SDS011;59335;46.652;21.272;2023-12-14T04:37:21;5.60;;;2.83;;
71513;SDS011;59335;46.652;21.272;2023-12-14T04:40:23;5.28;;;2.70;;
71513;SDS011;59335;46.652;21.272;2023-12-14T04:43:26;5.63;;;2.97;;
71513;SDS011;59335;46.652;21.272;2023-12-14T04:46:32;4.82;;;2.58;;
71513;SDS011;59335;46.652;21.272;2023-12-14T04:49:35;5.20;;;2.85;;
71513;SDS011;59335;46.652;21.272;2023-12-14T04:52:38;6.45;;;2.97;;
71513;SDS011;59335;46.652;21.272;2023-12-14T04:55:44;5.63;;;2.88;;
71513;SDS011;59335;46.652;21.272;2023-12-14T04:58:47;5.03;;;2.50;;
71513;SDS011;59335;46.652;21.272;2023-12-14T05:01:50;4.53;;;2.60;;
71513;SDS011;59335;46.652;21.272;2023-12-14T05:04:53;6.20;;;3.10;;
71513;SDS011;59335;46.652;21.272;2023-12-14T05:07:56;6.40;;;2.90;;
71513;SDS011;59335;46.652;21.272;2023-12-14T05:10:59;5.88;;;2.78;;
71513;SDS011;59335;46.652;21.272;2023-12-14T05:14:02;5.57;;;2.90;;
71513;SDS011;59335;46.652;21.272;2023-12-14T05:17:06;5.07;;;2.47;;
71513;SDS011;59335;46.652;21.272;2023-12-14T05:20:08;5.50;;;2.67;;
71513;SDS011;59335;46.652;21.272;2023-12-14T05:23:12;5.43;;;2.75;;
71513;SDS011;59335;46.652;21.272;2023-12-14T05:26:15;5.28;;;2.70;;
71513;SDS011;59335;46.652;21.272;2023-12-14T05:29:18;6.03;;;2.93;;
71513;SDS011;59335;46.652;21.272;2023-12-14T05:32:24;4.82;;;2.78;;
71513;SDS011;59335;46.652;21.272;2023-12-14T05:35:27;4.95;;;2.80;;
71513;SDS011;59335;46.652;21.272;2023-12-14T05:38:31;5.85;;;2.90;;
71513;SDS011;59335;46.652;21.272;2023-12-14T05:41:39;5.00;;;2.75;;
71513;SDS011;59335;46.652;21.272;2023-12-14T05:44:42;5.40;;;2.73;;
71513;SDS011;59335;46.652;21.272;2023-12-14T05:47:47;7.18;;;2.83;;
71513;SDS011;59335;46.652;21.272;2023-12-14T05:50:50;5.72;;;3.20;;
71513;SDS011;59335;46.652;21.272;2023-12-14T05:53:54;5.80;;;2.60;;
71513;SDS011;59335;46.652;21.272;2023-12-14T05:56:57;4.93;;;2.78;;
71513;SDS011;59335;46.652;21.272;2023-12-14T05:59:59;6.27;;;3.00;;
71513;SDS011;59335;46.652;21.272;2023-12-14T06:03:03;5.70;;;2.90;;
71513;SDS011;59335;46.652;21.272;2023-12-14T06:06:06;5.47;;;2.80;;
71513;SDS011;59335;46.652;21.272;2023-12-14T06:09:09;5.15;;;2.88;;
71513;SDS011;59335;46.652;21.272;2023-12-14T06:12:11;5.75;;;2.95;;
71513;SDS011;59335;46.652;21.272;2023-12-14T06:15:15;4.57;;;2.63;;
71513;SDS011;59335;46.652;21.272;2023-12-14T06:18:18;5.57;;;3.00;;
71513;SDS011;59335;46.652;21.272;2023-12-14T06:21:22;7.07;;;2.65;;
71513;SDS011;59335;46.652;21.272;2023-12-14T06:24:27;6.55;;;2.70;;
71513;SDS011;59335;46.652;21.272;2023-12-14T06:27:30;5.80;;;3.15;;
71513;SDS011;59335;46.652;21.272;2023-12-14T06:30:33;5.73;;;2.80;;
71513;SDS011;59335;46.652;21.272;2023-12-14T06:33:36;4.97;;;2.85;;
71513;SDS011;59335;46.652;21.272;2023-12-14T06:36:43;4.72;;;2.70;;
71513;SDS011;59335;46.652;21.272;2023-12-14T06:39:48;6.28;;;2.72;;
71513;SDS011;59335;46.652;21.272;2023-12-14T06:42:54;5.57;;;2.92;;
71513;SDS011;59335;46.652;21.272;2023-12-14T06:45:57;6.20;;;2.67;;
71513;SDS011;59335;46.652;21.272;2023-12-14T06:49:00;8.50;;;3.88;;
71513;SDS011;59335;46.652;21.272;2023-12-14T06:52:03;7.90;;;3.28;;
71513;SDS011;59335;46.652;21.272;2023-12-14T06:55:06;7.63;;;3.10;;
71513;SDS011;59335;46.652;21.272;2023-12-14T06:58:13;7.18;;;3.00;;
71513;SDS011;59335;46.652;21.272;2023-12-14T07:01:16;5.67;;;3.20;;
71513;SDS011;59335;46.652;21.272;2023-12-14T07:08:00;6.65;;;3.30;;
71513;SDS011;59335;46.652;21.272;2023-12-14T07:11:07;6.88;;;3.35;;
71513;SDS011;59335;46.652;21.272;2023-12-14T07:14:11;5.45;;;3.05;;
71513;SDS011;59335;46.652;21.272;2023-12-14T07:17:13;6.20;;;3.57;;
71513;SDS011;59335;46.652;21.272;2023-12-14T07:20:16;6.60;;;2.83;;
71513;SDS011;59335;46.652;21.272;2023-12-14T07:23:19;7.80;;;3.45;;
71513;SDS011;59335;46.652;21.272;2023-12-14T07:26:22;7.30;;;3.10;;
71513;SDS011;59335;46.652;21.272;2023-12-14T07:29:29;6.35;;;3.28;;
71513;SDS011;59335;46.652;21.272;2023-12-14T07:32:33;6.30;;;2.87;;
71513;SDS011;59335;46.652;21.272;2023-12-14T07:35:38;6.53;;;3.40;;
71513;SDS011;59335;46.652;21.272;2023-12-14T07:38:46;7.85;;;3.20;;
71513;SDS011;59335;46.652;21.272;2023-12-14T07:41:50;6.85;;;3.50;;
71513;SDS011;59335;46.652;21.272;2023-12-14T07:44:57;6.68;;;3.15;;
71513;SDS011;59335;46.652;21.272;2023-12-14T07:48:01;7.70;;;3.43;;
71513;SDS011;59335;46.652;21.272;2023-12-14T07:51:07;6.60;;;3.45;;
71513;SDS011;59335;46.652;21.272;2023-12-14T07:54:13;7.40;;;3.08;;
71513;SDS011;59335;46.652;21.272;2023-12-14T07:57:16;7.95;;;3.20;;
71513;SDS011;59335;46.652;21.272;2023-12-14T08:00:19;7.72;;;3.75;;
71513;SDS011;59335;46.652;21.272;2023-12-14T08:03:26;9.63;;;3.87;;
71513;SDS011;59335;46.652;21.272;2023-12-14T08:06:30;8.40;;;3.40;;
71513;SDS011;59335;46.652;21.272;2023-12-14T08:09:35;8.50;;;3.95;;
71513;SDS011;59335;46.652;21.272;2023-12-14T08:12:39;8.13;;;3.10;;
71513;SDS011;59335;46.652;21.272;2023-12-14T08:15:43;8.45;;;3.60;;
71513;SDS011;59335;46.652;21.272;2023-12-14T08:18:51;7.33;;;3.23;;
71513;SDS011;59335;46.652;21.272;2023-12-14T08:21:54;6.13;;;3.17;;
71513;SDS011;59335;46.652;21.272;2023-12-14T08:24:56;7.35;;;3.33;;
71513;SDS011;59335;46.652;21.272;2023-12-14T08:28:03;6.25;;;3.33;;
71513;SDS011;59335;46.652;21.272;2023-12-14T08:31:09;6.90;;;3.38;;
71513;SDS011;59335;46.652;21.272;2023-12-14T08:34:14;10.30;;;3.50;;
71513;SDS011;59335;46.652;21.272;2023-12-14T08:37:17;8.23;;;3.75;;
71513;SDS011;59335;46.652;21.272;2023-12-14T08:40:20;9.90;;;3.70;;
71513;SDS011;59335;46.652;21.272;2023-12-14T08:43:24;7.43;;;3.63;;
71513;SDS011;59335;46.652;21.272;2023-12-14T08:46:27;7.22;;;3.25;;
71513;SDS011;59335;46.652;21.272;2023-12-14T08:49:30;10.20;;;3.73;;
71513;SDS011;59335;46.652;21.272;2023-12-14T08:52:33;6.32;;;3.25;;
71513;SDS011;59335;46.652;21.272;2023-12-14T08:55:36;8.82;;;3.72;;
71513;SDS011;59335;46.652;21.272;2023-12-14T08:58:39;8.88;;;3.78;;
71513;SDS011;59335;46.652;21.272;2023-12-14T09:01:43;9.27;;;3.40;;
71513;SDS011;59335;46.652;21.272;2023-12-14T09:04:46;10.20;;;3.90;;
71513;SDS011;59335;46.652;21.272;2023-12-14T09:07:49;9.95;;;4.13;;
71513;SDS011;59335;46.652;21.272;2023-12-14T09:10:55;11.35;;;4.10;;
71513;SDS011;59335;46.652;21.272;2023-12-14T09:13:58;8.40;;;3.65;;
71513;SDS011;59335;46.652;21.272;2023-12-14T09:17:03;11.40;;;4.03;;
71513;SDS011;59335;46.652;21.272;2023-12-14T09:20:06;6.77;;;3.57;;
71513;SDS011;59335;46.652;21.272;2023-12-14T09:23:10;10.77;;;4.13;;
71513;SDS011;59335;46.652;21.272;2023-12-14T09:26:14;7.25;;;3.88;;
71513;SDS011;59335;46.652;21.272;2023-12-14T09:29:17;8.45;;;3.70;;
71513;SDS011;59335;46.652;21.272;2023-12-14T09:32:22;8.32;;;3.72;;
71513;SDS011;59335;46.652;21.272;2023-12-14T09:35:25;8.20;;;3.90;;
71513;SDS011;59335;46.652;21.272;2023-12-14T09:38:28;10.18;;;3.78;;
71513;SDS011;59335;46.652;21.272;2023-12-14T09:41:32;10.82;;;4.35;;
71513;SDS011;59335;46.652;21.272;2023-12-14T09:44:35;7.43;;;3.65;;
71513;SDS011;59335;46.652;21.272;2023-12-14T09:47:39;11.10;;;4.60;;
71513;SDS011;59335;46.652;21.272;2023-12-14T09:50:43;7.90;;;3.90;;
71513;SDS011;59335;46.652;21.272;2023-12-14T09:53:48;12.07;;;3.92;;
71513;SDS011;59335;46.652;21.272;2023-12-14T09:56:51;7.72;;;3.88;;
71513;SDS011;59335;46.652;21.272;2023-12-14T09:59:55;12.90;;;4.88;;
71513;SDS011;59335;46.652;21.272;2023-12-14T10:03:45;12.80;;;4.20;;
71513;SDS011;59335;46.652;21.272;2023-12-14T10:06:29;9.50;;;3.70;;
71513;SDS011;59335;46.652;21.272;2023-12-14T10:09:33;11.60;;;4.00;;
71513;SDS011;59335;46.652;21.272;2023-12-14T10:12:51;10.73;;;3.80;;
71513;SDS011;59335;46.652;21.272;2023-12-14T10:15:55;9.43;;;4.10;;
71513;SDS011;59335;46.652;21.272;2023-12-14T10:18:58;10.48;;;3.63;;
71513;SDS011;59335;46.652;21.272;2023-12-14T10:22:03;11.87;;;4.10;;
71513;SDS011;59335;46.652;21.272;2023-12-14T10:25:07;8.35;;;3.72;;
71513;SDS011;59335;46.652;21.272;2023-12-14T10:28:12;9.00;;;4.22;;
71513;SDS011;59335;46.652;21.272;2023-12-14T10:31:17;11.80;;;4.30;;
71513;SDS011;59335;46.652;21.272;2023-12-14T10:34:21;8.75;;;4.03;;
71513;SDS011;59335;46.652;21.272;2023-12-14T10:37:26;8.83;;;4.30;;
71513;SDS011;59335;46.652;21.272;2023-12-14T10:40:32;9.45;;;4.22;;
71513;SDS011;59335;46.652;21.272;2023-12-14T10:43:37;9.93;;;4.00;;
71513;SDS011;59335;46.652;21.272;2023-12-14T10:46:52;8.77;;;3.75;;
71513;SDS011;59335;46.652;21.272;2023-12-14T10:50:01;11.38;;;4.75;;
71513;SDS011;59335;46.652;21.272;2023-12-14T10:53:04;13.17;;;4.63;;
71513;SDS011;59335;46.652;21.272;2023-12-14T10:56:09;18.15;;;4.55;;
71513;SDS011;59335;46.652;21.272;2023-12-14T10:59:14;8.50;;;4.25;;
71513;SDS011;59335;46.652;21.272;2023-12-14T11:02:19;11.82;;;4.82;;
71513;SDS011;59335;46.652;21.272;2023-12-14T11:05:24;11.85;;;4.60;;
71513;SDS011;59335;46.652;21.272;2023-12-14T11:08:39;9.70;;;4.47;;
71513;SDS011;59335;46.652;21.272;2023-12-14T11:14:55;11.05;;;4.45;;
71513;SDS011;59335;46.652;21.272;2023-12-14T11:21:18;10.75;;;4.47;;
71513;SDS011;59335;46.652;21.272;2023-12-14T11:24:27;14.27;;;4.13;;
71513;SDS011;59335;46.652;21.272;2023-12-14T11:27:30;13.52;;;4.38;;
71513;SDS011;59335;46.652;21.272;2023-12-14T11:30:33;10.98;;;4.47;;
71513;SDS011;59335;46.652;21.272;2023-12-14T11:33:55;9.40;;;4.57;;
71513;SDS011;59335;46.652;21.272;2023-12-14T11:37:00;9.35;;;4.30;;
71513;SDS011;59335;46.652;21.272;2023-12-14T11:40:03;10.33;;;4.40;;
71513;SDS011;59335;46.652;21.272;2023-12-14T11:43:10;7.88;;;4.00;;
71513;SDS011;59335;46.652;21.272;2023-12-14T11:46:14;15.38;;;4.57;;
71513;SDS011;59335;46.652;21.272;2023-12-14T11:49:18;9.13;;;4.78;;
71513;SDS011;59335;46.652;21.272;2023-12-14T11:52:21;10.00;;;3.95;;
71513;SDS011;59335;46.652;21.272;2023-12-14T11:55:24;9.50;;;4.27;;
71513;SDS011;59335;46.652;21.272;2023-12-14T11:58:27;11.63;;;4.20;;
71513;SDS011;59335;46.652;21.272;2023-12-14T12:01:32;9.02;;;4.45;;
71513;SDS011;59335;46.652;21.272;2023-12-14T12:04:49;12.57;;;4.70;;
71513;SDS011;59335;46.652;21.272;2023-12-14T12:07:57;10.45;;;4.00;;
71513;SDS011;59335;46.652;21.272;2023-12-14T12:11:00;17.17;;;4.00;;
71513;SDS011;59335;46.652;21.272;2023-12-14T12:14:05;11.50;;;4.35;;
71513;SDS011;59335;46.652;21.272;2023-12-14T12:17:08;11.15;;;4.20;;
71513;SDS011;59335;46.652;21.272;2023-12-14T12:20:11;10.05;;;4.32;;
71513;SDS011;59335;46.652;21.272;2023-12-14T12:23:16;10.98;;;4.50;;
71513;SDS011;59335;46.652;21.272;2023-12-14T12:26:19;9.23;;;4.03;;
71513;SDS011;59335;46.652;21.272;2023-12-14T12:29:22;9.57;;;4.28;;
71513;SDS011;59335;46.652;21.272;2023-12-14T12:32:25;11.35;;;4.20;;
71513;SDS011;59335;46.652;21.272;2023-12-14T12:35:29;11.15;;;4.30;;
71513;SDS011;59335;46.652;21.272;2023-12-14T12:38:33;12.00;;;4.60;;
71513;SDS011;59335;46.652;21.272;2023-12-14T12:41:36;7.70;;;4.13;;
71513;SDS011;59335;46.652;21.272;2023-12-14T12:44:42;8.98;;;3.70;;
71513;SDS011;59335;46.652;21.272;2023-12-14T12:47:53;8.52;;;4.30;;
71513;SDS011;59335;46.652;21.272;2023-12-14T12:50:56;12.45;;;4.28;;
71513;SDS011;59335;46.652;21.272;2023-12-14T12:53:58;9.60;;;4.32;;
71513;SDS011;59335;46.652;21.272;2023-12-14T12:57:14;8.67;;;3.77;;
71513;SDS011;59335;46.652;21.272;2023-12-14T13:00:19;8.90;;;3.83;;
71513;SDS011;59335;46.652;21.272;2023-12-14T13:03:22;10.32;;;4.20;;
71513;SDS011;59335;46.652;21.272;2023-12-14T13:06:26;9.52;;;4.50;;
71513;SDS011;59335;46.652;21.272;2023-12-14T13:09:32;9.80;;;3.97;;
71513;SDS011;59335;46.652;21.272;2023-12-14T13:12:35;10.73;;;4.03;;
71513;SDS011;59335;46.652;21.272;2023-12-14T13:15:38;9.65;;;3.63;;
71513;SDS011;59335;46.652;21.272;2023-12-14T13:18:41;9.38;;;3.85;;
71513;SDS011;59335;46.652;21.272;2023-12-14T13:21:45;10.63;;;4.22;;
71513;SDS011;59335;46.652;21.272;2023-12-14T13:24:49;9.90;;;4.20;;
71513;SDS011;59335;46.652;21.272;2023-12-14T13:27:52;9.30;;;3.80;;
71513;SDS011;59335;46.652;21.272;2023-12-14T13:30:55;10.65;;;4.40;;
71513;SDS011;59335;46.652;21.272;2023-12-14T13:33:58;10.00;;;4.03;;
71513;SDS011;59335;46.652;21.272;2023-12-14T13:37:01;10.27;;;4.53;;
71513;SDS011;59335;46.652;21.272;2023-12-14T13:40:06;10.50;;;4.30;;
71513;SDS011;59335;46.652;21.272;2023-12-14T13:43:09;11.33;;;4.10;;
71513;SDS011;59335;46.652;21.272;2023-12-14T13:46:13;10.13;;;4.47;;
71513;SDS011;59335;46.652;21.272;2023-12-14T13:49:26;10.98;;;4.82;;
71513;SDS011;59335;46.652;21.272;2023-12-14T13:52:29;15.93;;;5.07;;
71513;SDS011;59335;46.652;21.272;2023-12-14T13:55:33;96.82;;;18.35;;
71513;SDS011;59335;46.652;21.272;2023-12-14T13:58:37;117.37;;;22.57;;
71513;SDS011;59335;46.652;21.272;2023-12-14T14:01:41;73.68;;;20.05;;
71513;SDS011;59335;46.652;21.272;2023-12-14T14:04:44;36.85;;;14.35;;
71513;SDS011;59335;46.652;21.272;2023-12-14T14:07:51;35.67;;;12.60;;
71513;SDS011;59335;46.652;21.272;2023-12-14T14:10:54;34.60;;;12.15;;
71513;SDS011;59335;46.652;21.272;2023-12-14T14:13:58;54.83;;;14.27;;
71513;SDS011;59335;46.652;21.272;2023-12-14T14:17:02;57.90;;;14.82;;
71513;SDS011;59335;46.652;21.272;2023-12-14T14:20:08;55.50;;;15.23;;
71513;SDS011;59335;46.652;21.272;2023-12-14T14:23:12;48.03;;;12.20;;
71513;SDS011;59335;46.652;21.272;2023-12-14T14:26:18;42.45;;;12.77;;
71513;SDS011;59335;46.652;21.272;2023-12-14T14:29:21;42.87;;;12.20;;
71513;SDS011;59335;46.652;21.272;2023-12-14T14:32:24;38.15;;;10.80;;
71513;SDS011;59335;46.652;21.272;2023-12-14T14:35:28;37.75;;;11.93;;
71513;SDS011;59335;46.652;21.272;2023-12-14T14:38:31;39.72;;;10.40;;
71513;SDS011;59335;46.652;21.272;2023-12-14T14:41:34;34.10;;;11.27;;
71513;SDS011;59335;46.652;21.272;2023-12-14T14:44:37;30.00;;;9.67;;
71513;SDS011;59335;46.652;21.272;2023-12-14T14:47:40;31.85;;;9.73;;
71513;SDS011;59335;46.652;21.272;2023-12-14T14:50:44;33.00;;;10.93;;
71513;SDS011;59335;46.652;21.272;2023-12-14T14:53:47;40.22;;;10.40;;
71513;SDS011;59335;46.652;21.272;2023-12-14T14:56:51;35.88;;;9.75;;
71513;SDS011;59335;46.652;21.272;2023-12-14T14:59:54;37.67;;;10.57;;
71513;SDS011;59335;46.652;21.272;2023-12-14T15:02:56;29.83;;;9.65;;
71513;SDS011;59335;46.652;21.272;2023-12-14T15:05:59;29.85;;;9.82;;
71513;SDS011;59335;46.652;21.272;2023-12-14T15:09:02;34.63;;;9.95;;
71513;SDS011;59335;46.652;21.272;2023-12-14T15:12:09;27.38;;;9.52;;
71513;SDS011;59335;46.652;21.272;2023-12-14T15:15:12;32.30;;;9.67;;
71513;SDS011;59335;46.652;21.272;2023-12-14T15:18:15;32.80;;;9.90;;
71513;SDS011;59335;46.652;21.272;2023-12-14T15:21:18;29.77;;;10.38;;
71513;SDS011;59335;46.652;21.272;2023-12-14T15:24:21;32.72;;;9.27;;
71513;SDS011;59335;46.652;21.272;2023-12-14T15:27:24;37.85;;;9.10;;
71513;SDS011;59335;46.652;21.272;2023-12-14T15:30:27;33.80;;;8.80;;
71513;SDS011;59335;46.652;21.272;2023-12-14T15:33:30;31.33;;;9.20;;
71513;SDS011;59335;46.652;21.272;2023-12-14T15:36:33;31.58;;;8.63;;
71513;SDS011;59335;46.652;21.272;2023-12-14T15:39:39;27.27;;;8.93;;
71513;SDS011;59335;46.652;21.272;2023-12-14T15:42:42;33.50;;;9.02;;
71513;SDS011;59335;46.652;21.272;2023-12-14T15:45:45;23.43;;;8.00;;
71513;SDS011;59335;46.652;21.272;2023-12-14T15:48:48;33.22;;;8.75;;
71513;SDS011;59335;46.652;21.272;2023-12-14T15:51:50;28.80;;;8.88;;
71513;SDS011;59335;46.652;21.272;2023-12-14T15:54:53;26.95;;;8.20;;
71513;SDS011;59335;46.652;21.272;2023-12-14T15:57:56;29.85;;;7.97;;
71513;SDS011;59335;46.652;21.272;2023-12-14T16:00:59;29.23;;;8.40;;
71513;SDS011;59335;46.652;21.272;2023-12-14T16:04:02;25.73;;;8.05;;
71513;SDS011;59335;46.652;21.272;2023-12-14T16:07:05;25.08;;;8.70;;
71513;SDS011;59335;46.652;21.272;2023-12-14T16:10:08;23.13;;;7.93;;
71513;SDS011;59335;46.652;21.272;2023-12-14T16:13:11;25.17;;;8.48;;
71513;SDS011;59335;46.652;21.272;2023-12-14T16:16:14;23.53;;;8.33;;
71513;SDS011;59335;46.652;21.272;2023-12-14T16:19:17;25.13;;;7.63;;
71513;SDS011;59335;46.652;21.272;2023-12-14T16:22:23;26.08;;;7.80;;
71513;SDS011;59335;46.652;21.272;2023-12-14T16:25:26;24.45;;;8.35;;
71513;SDS011;59335;46.652;21.272;2023-12-14T16:28:28;25.70;;;8.20;;
71513;SDS011;59335;46.652;21.272;2023-12-14T16:31:31;23.83;;;8.07;;
71513;SDS011;59335;46.652;21.272;2023-12-14T16:34:34;22.63;;;7.90;;
71513;SDS011;59335;46.652;21.272;2023-12-14T16:37:37;25.05;;;8.52;;
71513;SDS011;59335;46.652;21.272;2023-12-14T16:40:39;24.75;;;8.02;;
71513;SDS011;59335;46.652;21.272;2023-12-14T16:43:42;23.48;;;7.78;;
71513;SDS011;59335;46.652;21.272;2023-12-14T16:46:45;22.17;;;8.60;;
71513;SDS011;59335;46.652;21.272;2023-12-14T16:49:48;24.63;;;8.40;;
71513;SDS011;59335;46.652;21.272;2023-12-14T16:52:51;27.38;;;8.13;;
71513;SDS011;59335;46.652;21.272;2023-12-14T16:55:56;22.80;;;7.82;;
71513;SDS011;59335;46.652;21.272;2023-12-14T16:59:03;22.60;;;8.05;;
71513;SDS011;59335;46.652;21.272;2023-12-14T17:02:06;25.70;;;8.20;;
71513;SDS011;59335;46.652;21.272;2023-12-14T17:05:09;19.95;;;7.70;;
71513;SDS011;59335;46.652;21.272;2023-12-14T17:08:12;24.77;;;8.32;;
71513;SDS011;59335;46.652;21.272;2023-12-14T17:11:15;25.38;;;8.27;;
71513;SDS011;59335;46.652;21.272;2023-12-14T17:14:19;21.25;;;8.07;;
71513;SDS011;59335;46.652;21.272;2023-12-14T17:17:22;23.37;;;7.77;;
71513;SDS011;59335;46.652;21.272;2023-12-14T17:20:29;19.70;;;7.35;;
71513;SDS011;59335;46.652;21.272;2023-12-14T17:23:31;17.70;;;7.53;;
71513;SDS011;59335;46.652;21.272;2023-12-14T17:26:34;21.67;;;7.70;;
71513;SDS011;59335;46.652;21.272;2023-12-14T17:29:37;20.77;;;7.47;;
71513;SDS011;59335;46.652;21.272;2023-12-14T17:32:40;22.03;;;7.37;;
71513;SDS011;59335;46.652;21.272;2023-12-14T17:35:43;21.80;;;7.30;;
71513;SDS011;59335;46.652;21.272;2023-12-14T17:38:46;19.40;;;7.35;;
71513;SDS011;59335;46.652;21.272;2023-12-14T17:41:50;20.83;;;7.03;;
71513;SDS011;59335;46.652;21.272;2023-12-14T17:44:54;16.52;;;7.25;;
71513;SDS011;59335;46.652;21.272;2023-12-14T17:47:56;21.23;;;7.27;;
71513;SDS011;59335;46.652;21.272;2023-12-14T17:51:00;18.10;;;7.07;;
71513;SDS011;59335;46.652;21.272;2023-12-14T17:54:03;17.27;;;7.18;;
71513;SDS011;59335;46.652;21.272;2023-12-14T17:57:06;16.48;;;7.05;;
71513;SDS011;59335;46.652;21.272;2023-12-14T18:00:09;17.25;;;7.65;;
71513;SDS011;59335;46.652;21.272;2023-12-14T18:03:12;19.17;;;7.47;;
71513;SDS011;59335;46.652;21.272;2023-12-14T18:06:15;16.20;;;6.60;;
71513;SDS011;59335;46.652;21.272;2023-12-14T18:09:19;18.13;;;7.13;;
71513;SDS011;59335;46.652;21.272;2023-12-14T18:12:21;19.55;;;7.22;;
71513;SDS011;59335;46.652;21.272;2023-12-14T18:15:25;18.73;;;6.53;;